Washington, District of Columbia
Traffic Map
Current Weather Conditions
Washington, District of Columbia
Broken Clouds
Broken Clouds
69°
Feels Like: 69°
Wind Chill: 69° Ceiling: 25000
Heat Index: 69° Visibility: 10mi
Dew Point: 60° Wind: 13mph
Humidity: 73% Direction: 180° (S)
Pressure: 30.21in Gusts: 0mph
Raw Report DataKDCA 260952Z 18011KT 10SM BKN250 21/16 A3021 RMK AO2 SLP229 T02060156 $
Traffic Incident Summary
Active as of:
Severity:
Category:
InformationThere was an issue retrieving the traffic information for this location. Please try a different location or try again shortly.
Advertisements
Track Severe Weather on mobile